Time;durP1;ratioP1;P1;durP2;ratioP2;P2;SDS_P1;SDS_P2;PMS_P1;PMS_P2;Temp;Humidity;BMP_temperature;BMP_pressure;BME280_temperature;BME280_humidity;BME280_pressure;Samples;Min_cycle;Max_cycle;Signal;HPM_P1;HPM_P2
2022/06/20 00:00:20;;;;;;;5.53;1.50;;;14.70;99.90;;;;;;5082189;28;20386;-85
2022/06/20 00:02:51;;;;;;;5.45;1.40;;;14.80;99.90;;;;;;5082311;28;20396;-83
2022/06/20 00:05:23;;;;;;;6.70;1.55;;;14.90;99.90;;;;;;5089147;28;20577;-84
2022/06/20 00:07:50;;;;;;;5.97;1.60;;;14.90;99.90;;;;;;5089332;28;20705;-84
2022/06/20 00:10:21;;;;;;;4.18;1.42;;;15.10;99.90;;;;;;5089033;28;20427;-83
2022/06/20 00:12:49;;;;;;;5.88;1.45;;;15.20;99.90;;;;;;5087829;28;20438;-87
2022/06/20 00:15:33;;;;;;;4.78;1.50;;;15.20;99.90;;;;;;5076725;28;20377;-84
2022/06/20 00:18:03;;;;;;;4.57;1.40;;;15.40;99.90;;;;;;5088813;28;20839;-86
2022/06/20 00:20:30;;;;;;;5.35;1.40;;;15.40;99.90;;;;;;5088749;28;20479;-84
2022/06/20 00:22:57;;;;;;;5.32;1.60;;;15.40;99.90;;;;;;5088867;28;20375;-85
2022/06/20 00:25:25;;;;;;;5.07;1.48;;;15.50;99.90;;;;;;5087371;28;20384;-83
2022/06/20 00:27:54;;;;;;;6.90;1.45;;;15.50;99.90;;;;;;5050333;28;20428;-85
2022/06/20 00:30:23;;;;;;;6.07;1.60;;;15.50;99.90;;;;;;5072628;28;21217;-83
2022/06/20 00:32:50;;;;;;;5.00;1.50;;;15.50;99.90;;;;;;5087116;28;20364;-83
2022/06/20 00:35:18;;;;;;;5.70;1.50;;;15.30;99.90;;;;;;5076704;28;20381;-86
2022/06/20 00:37:45;;;;;;;4.03;1.40;;;15.30;99.90;;;;;;5085536;28;20517;-83
2022/06/20 00:40:42;;;;;;;5.30;1.48;;;15.50;99.90;;;;;;5087852;28;20389;-84
2022/06/20 00:43:12;;;;;;;7.13;1.48;;;15.70;99.90;;;;;;5082292;28;20393;-85
2022/06/20 00:45:44;;;;;;;7.43;1.77;;;15.80;99.90;;;;;;5080516;28;20724;-85
2022/06/20 00:48:37;;;;;;;4.47;1.60;;;15.70;99.90;;;;;;5057721;28;20388;-84
2022/06/20 00:51:27;;;;;;;6.82;1.52;;;15.70;99.90;;;;;;5088021;28;20421;-83
2022/06/20 00:54:05;;;;;;;5.63;1.58;;;15.90;99.90;;;;;;4999107;28;20391;-85
2022/06/20 00:56:55;;;;;;;3.97;1.40;;;16.10;99.90;;;;;;5005992;28;20391;-82
2022/06/20 00:59:30;;;;;;;7.43;1.50;;;16.30;99.90;;;;;;5006251;28;20405;-83
2022/06/20 01:02:00;;;;;;;4.18;1.30;;;16.40;99.90;;;;;;4993297;28;20442;-83
2022/06/20 01:04:36;;;;;;;4.97;1.40;;;16.60;99.90;;;;;;4991437;28;20777;-83
2022/06/20 01:07:09;;;;;;;5.53;1.40;;;16.60;99.90;;;;;;4992061;28;20884;-84
2022/06/20 01:09:41;;;;;;;5.40;1.77;;;16.90;99.90;;;;;;5005207;28;20418;-85
2022/06/20 01:12:15;;;;;;;7.80;1.83;;;17.20;99.90;;;;;;4976387;28;20399;-83
2022/06/20 01:14:42;;;;;;;7.15;1.73;;;17.40;99.90;;;;;;4999031;28;20386;-84
2022/06/20 01:17:27;;;;;;;8.15;1.98;;;17.50;99.90;;;;;;4978470;28;20379;-84
2022/06/20 01:20:05;;;;;;;7.50;1.88;;;17.40;99.90;;;;;;4986104;28;20401;-84
2022/06/20 01:22:38;;;;;;;9.60;1.80;;;17.40;99.90;;;;;;5005288;28;20399;-84
2022/06/20 01:25:37;;;;;;;10.18;1.83;;;17.40;99.90;;;;;;4995704;28;20402;-84
2022/06/20 01:28:09;;;;;;;6.55;1.55;;;17.20;99.90;;;;;;4921980;29;20441;-87
2022/06/20 01:30:43;;;;;;;8.23;1.80;;;17.20;99.90;;;;;;4947423;28;20395;-86
2022/06/20 01:33:13;;;;;;;7.72;1.75;;;17.20;99.90;;;;;;5004912;28;20391;-87
2022/06/20 01:38:29;;;;;;;7.10;1.60;;;16.90;99.90;;;;;;5004175;28;20386;-85
2022/06/20 01:43:43;;;;;;;6.40;1.57;;;16.80;99.90;;;;;;5001067;28;20418;-86
2022/06/20 01:46:12;;;;;;;5.18;1.50;;;16.90;99.90;;;;;;5004067;28;20505;-83
2022/06/20 01:48:43;;;;;;;6.93;1.40;;;17.00;99.90;;;;;;4989128;28;20383;-85
2022/06/20 01:51:39;;;;;;;5.45;1.55;;;17.10;99.90;;;;;;5005655;28;20494;-85
2022/06/20 01:54:08;;;;;;;5.70;1.50;;;17.20;99.90;;;;;;4988485;28;20506;-85
2022/06/20 01:56:36;;;;;;;6.72;1.50;;;17.10;99.90;;;;;;5002348;28;20854;-86
2022/06/20 01:59:09;;;;;;;7.72;1.48;;;17.00;99.90;;;;;;5001184;28;20410;-85
2022/06/20 02:01:37;;;;;;;7.38;1.63;;;17.10;99.90;;;;;;5001496;28;20761;-85
2022/06/20 02:04:09;;;;;;;8.00;1.77;;;17.10;99.90;;;;;;5009390;28;20534;-84
2022/06/20 02:06:36;;;;;;;8.87;1.60;;;17.10;99.90;;;;;;5071254;28;20476;-85
2022/06/20 02:09:06;;;;;;;8.00;1.50;;;17.20;99.90;;;;;;5059146;28;20734;-84
2022/06/20 02:11:40;;;;;;;10.07;1.80;;;17.20;99.90;;;;;;5064518;28;20382;-84
2022/06/20 02:14:35;;;;;;;7.05;1.50;;;17.20;99.90;;;;;;5065417;28;20481;-85
2022/06/20 02:17:09;;;;;;;11.60;1.80;;;17.40;99.90;;;;;;5065113;28;20390;-85
2022/06/20 02:19:44;;;;;;;7.20;1.80;;;17.40;99.90;;;;;;5080999;28;20360;-83
2022/06/20 02:22:12;;;;;;;7.22;1.75;;;17.60;99.90;;;;;;5085833;28;20383;-84
2022/06/20 02:24:43;;;;;;;7.90;1.70;;;17.90;99.90;;;;;;5086309;28;20375;-83
2022/06/20 02:27:38;;;;;;;8.50;1.90;;;18.20;99.90;;;;;;5065143;28;20746;-83
2022/06/20 02:30:08;;;;;;;9.15;1.75;;;18.30;99.90;;;;;;5086325;28;20392;-84
2022/06/20 02:32:49;;;;;;;7.30;1.75;;;18.30;99.90;;;;;;5086244;28;20961;-83
2022/06/20 02:35:19;;;;;;;6.72;1.52;;;18.40;99.90;;;;;;5082729;28;20402;-87
2022/06/20 02:37:48;;;;;;;5.88;1.67;;;18.40;99.90;;;;;;5090462;28;20369;-83
2022/06/20 02:40:18;;;;;;;7.17;1.60;;;18.40;99.90;;;;;;5090577;28;20387;-87
2022/06/20 02:42:49;;;;;;;5.05;1.30;;;18.60;99.90;;;;;;5090410;28;20395;-84
2022/06/20 02:45:17;;;;;;;7.03;1.53;;;18.20;99.80;;;;;;5079146;28;20444;-84
2022/06/20 02:47:48;;;;;;;4.82;1.30;;;17.90;99.90;;;;;;5069211;28;20482;-84
2022/06/20 02:50:21;;;;;;;4.38;1.30;;;18.00;99.90;;;;;;5070458;28;20412;-85
2022/06/20 02:52:54;;;;;;;6.55;1.40;;;18.10;99.90;;;;;;5090043;28;20383;-84
2022/06/20 02:55:23;;;;;;;5.72;1.50;;;18.30;99.90;;;;;;5090291;28;20456;-86
2022/06/20 02:57:55;;;;;;;6.80;1.50;;;18.30;99.90;;;;;;5076020;28;20370;-88
2022/06/20 03:00:39;;;;;;;4.90;1.30;;;18.50;99.90;;;;;;5046264;28;20481;-84
2022/06/20 03:03:14;;;;;;;4.85;1.25;;;18.60;99.90;;;;;;5072451;28;20477;-84
2022/06/20 03:05:41;;;;;;;4.35;1.20;;;18.60;99.40;;;;;;5079314;28;20420;-87
2022/06/20 03:08:10;;;;;;;6.57;1.15;;;18.60;99.90;;;;;;5071922;28;20910;-83
2022/06/20 03:10:43;;;;;;;6.43;1.23;;;18.70;99.70;;;;;;5090179;28;20388;-85
2022/06/20 03:13:12;;;;;;;4.05;1.20;;;18.70;99.10;;;;;;5075771;28;20375;-88
2022/06/20 03:15:43;;;;;;;5.70;1.20;;;18.70;99.50;;;;;;5090577;28;20377;-82
2022/06/20 03:18:18;;;;;;;4.67;1.20;;;18.50;98.60;;;;;;5090068;28;20721;-83
2022/06/20 03:20:47;;;;;;;5.20;1.40;;;18.20;98.90;;;;;;5074364;28;20439;-83
2022/06/20 03:23:32;;;;;;;3.35;1.10;;;18.20;99.50;;;;;;5074537;28;20445;-83
2022/06/20 03:26:03;;;;;;;6.80;1.23;;;18.10;99.90;;;;;;5061880;28;20382;-85
2022/06/20 03:28:33;;;;;;;5.55;1.33;;;18.10;99.90;;;;;;5081453;28;20387;-82
2022/06/20 03:31:01;;;;;;;7.95;1.40;;;18.10;99.90;;;;;;5071804;28;20369;-82
2022/06/20 03:33:29;;;;;;;4.95;1.40;;;18.00;99.90;;;;;;5075402;28;20420;-82
2022/06/20 03:36:09;;;;;;;4.30;1.20;;;17.90;99.90;;;;;;5085885;28;20377;-85
2022/06/20 03:38:38;;;;;;;4.95;1.30;;;17.90;99.90;;;;;;5089660;28;20408;-83
2022/06/20 03:41:07;;;;;;;5.07;1.40;;;17.90;99.90;;;;;;5083625;28;20403;-86
2022/06/20 03:43:37;;;;;;;5.35;1.20;;;18.00;99.80;;;;;;5072478;28;20536;-83
2022/06/20 03:46:21;;;;;;;6.70;1.53;;;18.10;99.70;;;;;;5080685;28;20865;-85
2022/06/20 03:49:05;;;;;;;7.47;1.40;;;18.10;99.90;;;;;;5084396;28;20739;-84
2022/06/20 03:52:09;;;;;;;6.33;1.50;;;18.10;99.40;;;;;;5088087;28;20369;-87
2022/06/20 03:54:49;;;;;;;9.13;1.63;;;18.00;99.30;;;;;;5084604;28;20382;-87
2022/06/20 03:57:49;;;;;;;5.03;1.30;;;17.70;99.90;;;;;;5060192;28;20374;-83
2022/06/20 04:00:29;;;;;;;10.30;1.90;;;17.50;99.90;;;;;;5056861;28;20395;-86
2022/06/20 04:03:02;;;;;;;7.78;1.75;;;17.40;99.90;;;;;;5082935;28;20387;-84
2022/06/20 04:05:42;;;;;;;6.47;1.50;;;17.30;99.90;;;;;;5089003;28;20384;-83
2022/06/20 04:11:24;;;;;;;7.72;1.77;;;16.80;99.90;;;;;;5006864;28;20431;-88
2022/06/20 04:13:55;;;;;;;6.60;1.60;;;16.60;99.90;;;;;;5006761;28;20483;-83
2022/06/20 04:16:34;;;;;;;7.30;1.60;;;16.50;99.90;;;;;;5004117;28;20398;-85
2022/06/20 04:19:28;;;;;;;7.87;1.80;;;16.40;99.90;;;;;;4970844;28;20873;-88
2022/06/20 04:22:09;;;;;;;7.28;1.75;;;16.30;99.90;;;;;;5003343;28;20411;-84
2022/06/20 04:24:42;;;;;;;7.88;1.60;;;16.20;99.90;;;;;;4988673;28;20384;-86
2022/06/20 04:27:20;;;;;;;7.82;1.65;;;16.20;99.90;;;;;;4991861;28;20491;-84
2022/06/20 04:29:58;;;;;;;7.73;1.90;;;16.10;99.90;;;;;;5006549;28;20847;-85
2022/06/20 04:32:47;;;;;;;8.98;2.20;;;16.10;99.90;;;;;;4992529;28;20373;-83
2022/06/20 04:35:23;;;;;;;8.00;2.15;;;16.10;99.90;;;;;;5006326;28;20478;-83
2022/06/20 04:38:15;;;;;;;8.40;2.92;;;16.00;99.90;;;;;;4989335;28;20423;-86
2022/06/20 04:41:05;;;;;;;10.45;4.68;;;16.00;99.90;;;;;;5005646;28;20426;-84
2022/06/20 04:43:54;;;;;;;12.77;7.10;;;16.00;99.90;;;;;;4987058;28;20861;-83
2022/06/20 04:46:24;;;;;;;9.40;3.83;;;16.00;99.90;;;;;;4982970;28;20936;-88
2022/06/20 04:48:52;;;;;;;8.80;3.03;;;16.00;99.90;;;;;;5082211;28;20391;-88
2022/06/20 04:51:24;;;;;;;9.65;2.45;;;16.00;99.90;;;;;;5087994;28;20372;-85
2022/06/20 04:53:51;;;;;;;7.65;2.30;;;16.00;99.90;;;;;;5087955;28;20375;-88
2022/06/20 04:56:26;;;;;;;11.82;2.38;;;16.00;99.90;;;;;;5067727;28;20407;-82
2022/06/20 04:59:00;;;;;;;6.72;1.92;;;16.00;99.90;;;;;;5078401;28;20403;-83
2022/06/20 05:01:31;;;;;;;6.47;1.75;;;16.00;99.90;;;;;;5087527;28;20410;-87
2022/06/20 05:04:11;;;;;;;10.70;2.10;;;16.00;99.90;;;;;;5087671;28;20392;-86
2022/06/20 05:06:40;;;;;;;8.50;1.83;;;16.00;99.90;;;;;;5087731;28;20854;-83
2022/06/20 05:09:34;;;;;;;6.63;1.80;;;16.00;99.90;;;;;;5087969;28;20380;-87
2022/06/20 05:12:04;;;;;;;7.50;1.93;;;16.10;99.90;;;;;;5079428;28;20463;-86
2022/06/20 05:14:56;;;;;;;9.82;2.17;;;16.10;99.90;;;;;;5085616;28;20387;-83
2022/06/20 05:17:29;;;;;;;6.25;1.75;;;16.10;99.90;;;;;;5063002;28;20384;-85
2022/06/20 05:20:36;;;;;;;5.97;1.60;;;16.20;99.90;;;;;;5080438;28;20393;-83
2022/06/20 05:23:20;;;;;;;5.77;1.57;;;16.20;99.90;;;;;;5005335;28;20491;-81
2022/06/20 05:25:48;;;;;;;5.47;1.40;;;16.20;99.90;;;;;;4987313;28;20712;-82
2022/06/20 05:28:22;;;;;;;7.05;1.60;;;16.20;99.90;;;;;;4997945;28;20811;-87
2022/06/20 05:30:49;;;;;;;4.18;1.40;;;16.30;99.90;;;;;;5001563;28;20498;-86
2022/06/20 05:33:30;;;;;;;6.70;1.90;;;16.40;99.90;;;;;;5005167;28;20950;-84
2022/06/20 05:36:02;;;;;;;8.05;2.20;;;16.50;99.90;;;;;;4998132;28;20394;-83
2022/06/20 05:38:58;;;;;;;5.73;1.53;;;16.60;99.90;;;;;;5005130;28;20960;-84
2022/06/20 05:41:26;;;;;;;5.20;1.40;;;16.70;99.90;;;;;;5004888;28;20430;-84
2022/06/20 05:43:55;;;;;;;7.73;1.30;;;16.90;99.90;;;;;;4999611;28;21023;-84
2022/06/20 05:46:34;;;;;;;4.78;1.30;;;17.00;99.90;;;;;;4980421;28;20785;-83
2022/06/20 05:49:10;;;;;;;9.52;1.70;;;17.00;99.90;;;;;;4989739;28;20394;-83
2022/06/20 05:51:40;;;;;;;4.38;1.42;;;16.90;99.90;;;;;;4977853;28;20399;-82
2022/06/20 05:54:23;;;;;;;5.43;1.27;;;16.70;99.90;;;;;;4985497;28;20389;-84
2022/06/20 05:57:15;;;;;;;5.50;1.30;;;16.50;99.90;;;;;;4991317;28;20387;-84
2022/06/20 05:59:51;;;;;;;5.07;1.40;;;16.40;99.90;;;;;;5012914;28;20442;-86
2022/06/20 06:02:31;;;;;;;4.13;1.45;;;16.40;99.90;;;;;;5059657;28;20807;-82
2022/06/20 06:05:16;;;;;;;4.45;1.15;;;16.20;99.90;;;;;;5080130;28;20401;-82
2022/06/20 06:07:49;;;;;;;5.30;1.20;;;16.10;99.90;;;;;;5061275;28;20441;-83
2022/06/20 06:10:27;;;;;;;5.43;1.30;;;16.00;99.90;;;;;;5083862;28;20357;-82
2022/06/20 06:13:23;;;;;;;3.75;1.52;;;15.70;99.90;;;;;;5061735;28;20397;-83
2022/06/20 06:19:37;;;;;;;5.53;1.80;;;15.40;99.90;;;;;;5004723;28;20382;-80
2022/06/20 06:22:16;;;;;;;5.93;1.52;;;15.20;99.90;;;;;;4997566;28;20561;-83
2022/06/20 06:24:46;;;;;;;5.68;1.23;;;15.10;99.90;;;;;;4977305;28;20461;-82
2022/06/20 06:27:24;;;;;;;4.72;1.60;;;15.00;99.90;;;;;;5002531;28;20434;-81
2022/06/20 06:29:56;;;;;;;7.30;2.90;;;15.00;99.90;;;;;;5004525;28;20383;-82
2022/06/20 06:32:40;;;;;;;6.80;3.38;;;14.90;99.90;;;;;;5004977;28;20863;-85
2022/06/20 06:35:15;;;;;;;9.05;5.10;;;14.80;99.90;;;;;;4980669;28;20427;-84
2022/06/20 06:38:07;;;;;;;11.10;6.95;;;14.70;99.90;;;;;;4976959;28;20396;-84
2022/06/20 06:40:50;;;;;;;12.38;7.20;;;14.50;99.90;;;;;;4907250;29;20896;-82
2022/06/20 06:43:23;;;;;;;15.85;7.93;;;14.40;99.90;;;;;;4907305;29;20532;-82
2022/06/20 06:45:53;;;;;;;11.25;6.85;;;14.30;99.90;;;;;;4907862;29;20983;-83
2022/06/20 06:48:42;;;;;;;10.07;4.53;;;14.20;99.90;;;;;;4907907;29;20499;-84
2022/06/20 06:51:15;;;;;;;10.57;4.43;;;14.10;99.90;;;;;;4906624;29;20447;-82
2022/06/20 06:53:51;;;;;;;10.73;3.90;;;14.00;99.90;;;;;;4891925;29;20482;-82
2022/06/20 06:56:36;;;;;;;6.75;3.10;;;13.80;99.90;;;;;;4977980;28;20875;-84
2022/06/20 06:59:15;;;;;;;7.30;2.67;;;13.70;99.90;;;;;;4984530;28;20547;-82
2022/06/20 07:01:53;;;;;;;7.03;2.22;;;13.70;99.90;;;;;;4979764;28;20523;-81
2022/06/20 07:04:59;;;;;;;6.80;2.30;;;13.60;99.90;;;;;;4984076;28;20405;-82
2022/06/20 07:07:33;;;;;;;6.93;2.13;;;13.40;99.90;;;;;;4898742;29;20581;-82
2022/06/20 07:10:00;;;;;;;7.23;2.00;;;13.30;99.90;;;;;;4906488;29;20413;-83
2022/06/20 07:12:33;;;;;;;7.00;3.60;;;13.20;99.90;;;;;;4907388;29;20387;-83
2022/06/20 07:15:13;;;;;;;36.47;32.55;;;13.00;99.90;;;;;;4906578;29;20896;-82
2022/06/20 07:17:46;;;;;;;74.63;66.77;;;12.90;99.90;;;;;;4930874;28;20498;-80
2022/06/20 07:20:17;;;;;;;106.80;95.65;;;12.80;99.90;;;;;;4954445;28;20406;-81
2022/06/20 07:22:45;;;;;;;122.70;87.50;;;12.80;99.90;;;;;;4961865;28;20404;-82
2022/06/20 07:25:42;;;;;;;55.47;32.47;;;12.70;99.90;;;;;;4962145;28;20411;-81
2022/06/20 07:28:34;;;;;;;20.00;12.40;;;12.70;99.90;;;;;;4967659;28;20425;-81
2022/06/20 07:31:37;;;;;;;14.13;8.88;;;12.70;99.90;;;;;;4967416;28;20930;-81
2022/06/20 07:34:16;;;;;;;14.30;7.68;;;12.70;99.90;;;;;;4961815;28;20424;-83
2022/06/20 07:36:54;;;;;;;12.07;6.45;;;12.70;99.90;;;;;;4956980;28;20422;-81
2022/06/20 07:39:24;;;;;;;12.67;6.60;;;12.70;99.90;;;;;;4956951;28;20564;-81
2022/06/20 07:42:03;;;;;;;13.95;4.97;;;12.80;99.90;;;;;;4942872;28;20941;-81
2022/06/20 07:44:39;;;;;;;7.65;4.93;;;12.80;99.90;;;;;;5039121;28;20398;-83
2022/06/20 07:47:17;;;;;;;13.52;5.00;;;12.80;99.90;;;;;;5066272;28;20394;-82
2022/06/20 07:50:02;;;;;;;9.50;5.22;;;12.80;99.90;;;;;;5057484;28;20490;-82
2022/06/20 07:52:42;;;;;;;10.32;4.32;;;12.80;99.90;;;;;;5066081;28;20382;-82
2022/06/20 07:55:19;;;;;;;9.88;4.40;;;12.70;99.90;;;;;;5036091;28;20487;-80
2022/06/20 07:57:55;;;;;;;9.57;4.13;;;12.60;99.90;;;;;;5053544;28;20399;-79
2022/06/20 08:00:28;;;;;;;11.23;4.10;;;12.60;99.90;;;;;;5057383;28;20390;-82
2022/06/20 08:03:02;;;;;;;8.18;4.30;;;12.60;99.90;;;;;;5065716;28;20411;-84
2022/06/20 08:05:42;;;;;;;11.07;4.78;;;12.60;99.90;;;;;;5054853;28;20398;-81
2022/06/20 08:08:29;;;;;;;10.15;4.60;;;12.50;99.90;;;;;;5072822;28;20394;-80
2022/06/20 08:11:39;;;;;;;9.27;4.97;;;12.50;99.90;;;;;;5069310;28;20476;-85
2022/06/20 08:14:10;;;;;;;9.55;4.78;;;12.50;99.90;;;;;;5052843;28;20376;-82
2022/06/20 08:16:39;;;;;;;10.30;4.53;;;12.40;99.90;;;;;;5067009;28;20745;-82
2022/06/20 08:19:06;;;;;;;10.45;4.60;;;12.40;99.90;;;;;;5062103;28;20409;-81
2022/06/20 08:21:42;;;;;;;10.60;5.20;;;12.50;99.90;;;;;;5078796;28;20753;-81
2022/06/20 08:24:23;;;;;;;9.60;4.50;;;12.60;99.90;;;;;;5058125;28;20394;-81
2022/06/20 08:27:08;;;;;;;11.60;5.63;;;12.60;99.90;;;;;;5065454;28;20390;-81
2022/06/20 08:29:46;;;;;;;16.60;8.83;;;12.60;99.90;;;;;;5088457;28;20368;-81
2022/06/20 08:32:36;;;;;;;21.80;13.87;;;12.60;99.90;;;;;;5071869;28;20385;-81
2022/06/20 08:35:15;;;;;;;31.17;20.27;;;12.60;99.90;;;;;;4969282;28;20532;-81
2022/06/20 08:37:47;;;;;;;37.28;25.70;;;12.60;99.90;;;;;;4987422;28;21235;-83
2022/06/20 08:40:49;;;;;;;41.53;29.80;;;12.50;99.90;;;;;;4972744;28;20449;-83
2022/06/20 08:43:46;;;;;;;36.95;25.00;;;12.50;99.90;;;;;;4890182;29;20432;-81
2022/06/20 08:46:28;;;;;;;24.77;14.85;;;12.40;99.90;;;;;;4889759;29;20436;-83
2022/06/20 08:49:01;;;;;;;19.52;11.48;;;12.30;99.90;;;;;;4890178;29;20811;-83
2022/06/20 08:52:07;;;;;;;17.52;9.32;;;12.20;99.90;;;;;;4890278;29;20398;-82
2022/06/20 08:54:52;;;;;;;15.85;9.30;;;12.10;99.90;;;;;;4875215;29;20409;-81
2022/06/20 08:57:55;;;;;;;18.75;8.20;;;12.00;99.90;;;;;;4889597;29;20438;-82
2022/06/20 09:00:40;;;;;;;18.35;9.82;;;11.90;99.90;;;;;;4890006;29;20878;-82
2022/06/20 09:03:28;;;;;;;17.42;8.80;;;11.80;99.90;;;;;;4888730;29;20476;-81
2022/06/20 09:06:24;;;;;;;17.40;7.88;;;11.70;99.90;;;;;;4889363;29;20410;-82
2022/06/20 09:09:13;;;;;;;15.10;8.53;;;11.70;99.90;;;;;;4888330;29;20481;-81
2022/06/20 09:11:52;;;;;;;17.38;8.68;;;11.50;99.90;;;;;;4920842;28;20955;-81
2022/06/20 09:14:28;;;;;;;17.85;8.90;;;11.40;99.90;;;;;;4976472;28;20799;-78
2022/06/20 09:17:05;;;;;;;15.18;8.77;;;11.40;99.90;;;;;;4984938;28;20446;-80
2022/06/20 09:19:56;;;;;;;16.80;8.90;;;11.30;99.90;;;;;;5004277;28;20380;-80
2022/06/20 09:22:33;;;;;;;15.30;8.48;;;11.30;99.90;;;;;;5000195;28;20459;-80
2022/06/20 09:25:17;;;;;;;16.58;8.50;;;11.20;99.90;;;;;;5004589;28;20390;-80
2022/06/20 09:27:50;;;;;;;16.52;9.20;;;11.20;99.90;;;;;;5005189;28;20379;-80
2022/06/20 09:30:46;;;;;;;20.63;10.97;;;11.20;99.90;;;;;;5004570;28;20387;-81
2022/06/20 09:33:32;;;;;;;30.38;18.83;;;11.20;99.90;;;;;;5000953;28;20395;-80
2022/06/20 09:36:08;;;;;;;45.60;34.45;;;11.10;99.90;;;;;;5003953;28;20972;-81
2022/06/20 09:38:56;;;;;;;41.75;32.83;;;11.00;99.90;;;;;;5003538;28;20402;-80
2022/06/20 09:41:43;;;;;;;64.97;35.17;;;10.90;99.90;;;;;;5004794;28;20417;-80
2022/06/20 09:44:29;;;;;;;44.67;24.90;;;10.80;99.90;;;;;;5003897;28;20486;-80
2022/06/20 09:47:01;;;;;;;61.20;31.60;;;10.80;99.90;;;;;;5004258;28;20403;-80
2022/06/20 09:50:02;;;;;;;40.77;24.43;;;10.80;99.90;;;;;;5004362;28;20391;-80
2022/06/20 09:52:52;;;;;;;28.75;16.08;;;10.80;99.90;;;;;;5002706;28;20462;-79
2022/06/20 09:55:38;;;;;;;29.23;13.57;;;10.80;99.90;;;;;;5002585;28;20397;-80
2022/06/20 09:58:26;;;;;;;21.02;10.73;;;10.80;99.90;;;;;;5003875;28;20433;-80
2022/06/20 10:01:00;;;;;;;21.13;10.15;;;10.90;99.90;;;;;;5065386;28;20398;-80
2022/06/20 10:03:39;;;;;;;17.17;9.25;;;10.80;99.90;;;;;;5061225;28;20754;-81
2022/06/20 10:06:29;;;;;;;19.48;8.63;;;10.80;99.90;;;;;;5065253;28;20393;-81
2022/06/20 10:09:28;;;;;;;20.95;8.52;;;10.90;99.90;;;;;;5053759;28;20951;-80
2022/06/20 10:12:14;;;;;;;17.38;7.80;;;10.90;99.90;;;;;;5015170;28;20877;-79
2022/06/20 10:15:11;;;;;;;15.10;7.53;;;10.90;99.90;;;;;;5019410;28;20460;-79
2022/06/20 10:17:49;;;;;;;18.95;7.93;;;11.00;99.90;;;;;;5023726;28;20782;-80
2022/06/20 10:20:19;;;;;;;17.73;7.27;;;11.10;99.90;;;;;;5006570;28;20777;-80
2022/06/20 10:23:21;;;;;;;18.50;8.05;;;11.00;99.90;;;;;;5021773;28;20448;-79
2022/06/20 10:26:10;;;;;;;23.50;11.10;;;11.00;99.90;;;;;;5008983;28;20405;-79
2022/06/20 10:28:45;;;;;;;23.55;9.27;;;11.00;99.90;;;;;;5024129;28;20382;-80
2022/06/20 10:31:50;;;;;;;18.30;9.63;;;10.80;99.90;;;;;;5023537;28;20416;-80
2022/06/20 10:34:41;;;;;;;17.90;9.45;;;10.70;99.90;;;;;;5011615;28;20917;-82
2022/06/20 10:37:36;;;;;;;20.17;9.10;;;10.70;99.90;;;;;;5022944;28;20393;-79
2022/06/20 10:40:10;;;;;;;19.57;8.80;;;10.70;99.90;;;;;;5014760;28;20540;-80
2022/06/20 10:43:06;;;;;;;19.75;8.30;;;10.60;99.90;;;;;;5018086;28;20411;-80
2022/06/20 10:45:39;;;;;;;16.88;8.30;;;10.70;99.90;;;;;;5020141;28;20476;-80
2022/06/20 10:48:29;;;;;;;16.73;7.90;;;10.70;99.90;;;;;;5027666;28;20398;-80
2022/06/20 10:51:05;;;;;;;14.95;7.50;;;10.60;99.90;;;;;;5047677;28;21244;-81
2022/06/20 10:54:04;;;;;;;17.95;7.43;;;10.60;99.90;;;;;;5031442;28;20856;-81
2022/06/20 10:57:00;;;;;;;18.70;7.28;;;10.60;99.90;;;;;;5064551;28;20740;-81
2022/06/20 10:59:57;;;;;;;17.40;7.20;;;10.60;99.90;;;;;;5035139;28;20395;-82
2022/06/20 11:02:42;;;;;;;13.82;6.80;;;10.50;99.90;;;;;;5059323;28;20869;-81
2022/06/20 11:05:21;;;;;;;22.07;7.77;;;10.50;99.90;;;;;;5069287;28;20558;-81
2022/06/20 11:08:12;;;;;;;19.60;6.97;;;10.50;99.90;;;;;;5063432;28;20370;-80
2022/06/20 11:11:03;;;;;;;17.98;6.28;;;10.50;99.90;;;;;;5069890;28;20450;-81
2022/06/20 11:13:37;;;;;;;25.70;7.17;;;10.40;99.90;;;;;;5068934;28;20923;-80
2022/06/20 11:16:16;;;;;;;25.83;6.80;;;10.40;99.90;;;;;;5067097;28;20382;-80
2022/06/20 11:19:11;;;;;;;49.03;27.35;;;10.40;99.90;;;;;;5067602;28;20722;-80
2022/06/20 11:22:02;;;;;;;47.87;37.87;;;10.30;99.90;;;;;;5063743;28;20908;-80
2022/06/20 11:25:07;;;;;;;44.78;32.50;;;10.20;99.90;;;;;;5058444;28;20410;-81
2022/06/20 11:27:38;;;;;;;24.58;14.77;;;10.10;99.90;;;;;;5066446;28;20385;-81
2022/06/20 11:30:08;;;;;;;25.17;13.90;;;10.00;99.90;;;;;;5069571;28;20803;-81
2022/06/20 11:32:59;;;;;;;33.07;13.43;;;9.90;99.90;;;;;;5067625;28;20392;-81
2022/06/20 11:35:38;;;;;;;33.33;10.15;;;9.90;99.90;;;;;;5068725;28;20447;-80
2022/06/20 11:38:14;;;;;;;29.15;10.00;;;9.90;99.90;;;;;;5062890;28;20397;-80
2022/06/20 11:41:15;;;;;;;29.52;12.40;;;9.80;99.90;;;;;;5055241;28;20391;-80
2022/06/20 11:44:09;;;;;;;32.78;13.80;;;9.70;99.90;;;;;;5054925;28;20883;-80
2022/06/20 11:46:54;;;;;;;38.97;16.50;;;9.70;99.90;;;;;;5064863;28;20391;-82
2022/06/20 11:49:44;;;;;;;28.23;18.87;;;9.60;99.90;;;;;;5063788;28;20397;-78
2022/06/20 11:52:21;;;;;;;29.77;14.13;;;9.50;99.90;;;;;;5052588;28;20391;-82
2022/06/20 11:55:10;;;;;;;33.38;13.65;;;9.40;99.90;;;;;;5055718;28;20424;-81
2022/06/20 11:57:56;;;;;;;28.23;13.40;;;9.40;99.90;;;;;;5062948;28;20917;-80
2022/06/20 12:00:46;;;;;;;35.92;17.25;;;9.30;99.90;;;;;;5061811;28;20514;-81
2022/06/20 12:03:39;;;;;;;38.10;18.15;;;9.30;99.90;;;;;;5000127;28;20407;-81
2022/06/20 12:06:33;;;;;;;34.75;16.80;;;9.30;99.90;;;;;;5001882;28;20412;-81
2022/06/20 12:09:10;;;;;;;35.80;17.13;;;9.20;99.90;;;;;;4986934;28;20483;-80
2022/06/20 12:12:00;;;;;;;32.75;18.15;;;9.20;99.90;;;;;;4986393;28;20451;-79
2022/06/20 12:15:05;;;;;;;28.52;16.20;;;9.10;99.90;;;;;;4985351;28;20388;-81
2022/06/20 12:17:44;;;;;;;28.00;15.30;;;9.10;99.90;;;;;;4980151;28;20410;-81
2022/06/20 12:23:43;;;;;;;25.73;13.15;;;8.90;99.90;;;;;;4980605;28;20383;-81
2022/06/20 12:26:19;;;;;;;20.63;11.38;;;8.90;99.90;;;;;;4986335;28;20427;-80
2022/06/20 12:28:50;;;;;;;24.30;11.30;;;8.90;99.90;;;;;;4975478;28;20398;-80
2022/06/20 12:31:28;;;;;;;24.40;10.53;;;8.90;99.90;;;;;;4979703;28;20396;-82
2022/06/20 12:34:23;;;;;;;25.05;10.57;;;8.90;99.90;;;;;;4983997;28;20954;-83
2022/06/20 12:37:03;;;;;;;24.55;11.45;;;8.90;99.90;;;;;;4986322;28;20477;-79
2022/06/20 12:39:43;;;;;;;23.33;10.05;;;8.90;99.90;;;;;;4981045;28;20409;-79
2022/06/20 12:42:19;;;;;;;21.23;10.75;;;8.90;99.90;;;;;;5044207;28;20791;-80
2022/06/20 12:45:26;;;;;;;22.65;10.82;;;8.80;99.90;;;;;;5034403;28;20450;-81
2022/06/20 12:48:26;;;;;;;21.63;10.77;;;8.80;99.90;;;;;;5062888;28;20395;-80
2022/06/20 12:51:12;;;;;;;22.27;10.13;;;8.70;99.90;;;;;;5045516;28;20381;-80
2022/06/20 12:53:48;;;;;;;23.65;11.75;;;8.70;99.90;;;;;;5055184;28;20414;-80
2022/06/20 12:56:36;;;;;;;21.15;11.15;;;8.70;99.90;;;;;;5063525;28;20414;-81
2022/06/20 12:59:35;;;;;;;22.98;11.95;;;8.60;99.90;;;;;;5056583;28;20774;-80
2022/06/20 13:02:10;;;;;;;22.92;11.68;;;8.60;99.90;;;;;;5000908;28;20411;-80
2022/06/20 13:05:14;;;;;;;25.70;11.52;;;8.60;99.90;;;;;;5000078;28;20492;-81
2022/06/20 13:07:47;;;;;;;25.40;13.32;;;8.60;99.90;;;;;;5001267;28;20475;-81
2022/06/20 13:10:24;;;;;;;25.00;13.90;;;8.60;99.90;;;;;;5005250;28;20494;-81
2022/06/20 13:13:10;;;;;;;22.30;11.53;;;8.60;99.90;;;;;;4999914;28;20410;-80
2022/06/20 13:15:38;;;;;;;22.55;12.00;;;8.60;99.90;;;;;;5000362;28;20392;-80
2022/06/20 13:18:41;;;;;;;18.25;10.13;;;8.50;99.90;;;;;;4997226;28;20469;-81
2022/06/20 13:21:36;;;;;;;18.80;10.20;;;8.50;99.90;;;;;;4951194;28;20416;-80
2022/06/20 13:24:09;;;;;;;17.88;9.68;;;8.50;99.90;;;;;;4934873;29;20901;-81
2022/06/20 13:27:03;;;;;;;16.92;9.43;;;8.50;99.90;;;;;;4943215;29;20404;-81
2022/06/20 13:29:45;;;;;;;16.48;9.70;;;8.40;99.90;;;;;;4937700;29;20397;-80
2022/06/20 13:32:29;;;;;;;18.55;9.52;;;8.40;99.90;;;;;;4955293;28;20386;-80
2022/06/20 13:35:23;;;;;;;19.70;10.00;;;8.40;99.90;;;;;;4947034;29;20388;-79
2022/06/20 13:38:21;;;;;;;18.05;10.52;;;8.30;99.90;;;;;;4908643;29;20417;-79
2022/06/20 13:41:25;;;;;;;16.20;9.87;;;8.30;99.90;;;;;;4922058;29;20417;-79
2022/06/20 13:44:21;;;;;;;20.73;10.53;;;8.30;99.90;;;;;;4884197;29;20541;-82
2022/06/20 13:46:58;;;;;;;19.50;10.70;;;8.20;99.90;;;;;;4824302;29;20406;-79
2022/06/20 13:49:48;;;;;;;22.33;12.32;;;8.20;99.90;;;;;;4821881;29;20528;-80
2022/06/20 13:52:27;;;;;;;21.08;12.90;;;8.20;99.90;;;;;;4818145;29;20881;-81
2022/06/20 13:55:02;;;;;;;23.63;13.02;;;8.20;99.90;;;;;;4830450;29;20414;-79
2022/06/20 13:57:45;;;;;;;22.30;13.43;;;8.20;99.90;;;;;;4837865;29;20563;-79
2022/06/20 14:00:27;;;;;;;19.85;12.60;;;8.20;99.90;;;;;;4842528;29;20928;-79
2022/06/20 14:03:14;;;;;;;20.73;12.82;;;8.10;99.90;;;;;;4852144;29;20409;-79